Terminal Aerodrome Forecast
Issued by NWS

Home | Current Version | Previous Version | Text Only | Print | Product List | Glossary Off
Versions: 1 2 3 4 5 6 7 8 9 10 11 12 13 14 15 16

000
FTUS43 KMPX 061139
TAFRWF
TAF
KRWF 061139Z 0612/0712 33008KT 4SM -SHRA BR BKN006 OVC015
     FM061500 34010G17KT P6SM -SHRA BKN020 OVC040
     FM061800 34012G20KT P6SM SCT025 BKN070
     FM062000 34011G18KT P6SM BKN100
     FM070000 32007KT P6SM SKC=

USA.gov is the U.S. government's official web portal to all federal, state and local government web resources and services.